sensor_id;sensor_type;location;lat;lon;timestamp;temperature;humidity
19342;DHT22;9807;48.258;12.690;2023-02-01T00:00:22;5.00;99.90
19342;DHT22;9807;48.258;12.690;2023-02-01T00:02:53;4.90;99.90
19342;DHT22;9807;48.258;12.690;2023-02-01T00:05:31;4.90;99.90
19342;DHT22;9807;48.258;12.690;2023-02-01T00:08:03;4.80;99.90
19342;DHT22;9807;48.258;12.690;2023-02-01T00:10:31;4.90;99.90
19342;DHT22;9807;48.258;12.690;2023-02-01T00:13:00;5.00;99.90
19342;DHT22;9807;48.258;12.690;2023-02-01T00:15:28;4.90;99.90
19342;DHT22;9807;48.258;12.690;2023-02-01T00:17:59;4.90;99.90
19342;DHT22;9807;48.258;12.690;2023-02-01T00:20:28;4.90;99.90
19342;DHT22;9807;48.258;12.690;2023-02-01T00:23:02;4.90;99.90
19342;DHT22;9807;48.258;12.690;2023-02-01T00:25:31;4.90;99.90
19342;DHT22;9807;48.258;12.690;2023-02-01T00:27:59;4.90;99.90
19342;DHT22;9807;48.258;12.690;2023-02-01T00:30:26;5.00;99.90
19342;DHT22;9807;48.258;12.690;2023-02-01T00:32:52;5.00;99.90
19342;DHT22;9807;48.258;12.690;2023-02-01T00:35:22;5.00;99.90
19342;DHT22;9807;48.258;12.690;2023-02-01T00:37:50;5.00;99.90
19342;DHT22;9807;48.258;12.690;2023-02-01T00:40:21;5.00;99.90
19342;DHT22;9807;48.258;12.690;2023-02-01T00:42:57;4.90;99.90
19342;DHT22;9807;48.258;12.690;2023-02-01T00:45:23;5.00;99.90
19342;DHT22;9807;48.258;12.690;2023-02-01T00:47:49;5.00;99.90
19342;DHT22;9807;48.258;12.690;2023-02-01T00:50:19;4.90;99.90
19342;DHT22;9807;48.258;12.690;2023-02-01T00:52:48;5.00;99.90
19342;DHT22;9807;48.258;12.690;2023-02-01T00:55:25;4.90;99.90
19342;DHT22;9807;48.258;12.690;2023-02-01T00:57:56;4.90;99.90
19342;DHT22;9807;48.258;12.690;2023-02-01T01:00:28;4.80;99.90
19342;DHT22;9807;48.258;12.690;2023-02-01T01:02:53;4.80;99.90
19342;DHT22;9807;48.258;12.690;2023-02-01T01:05:20;4.80;99.90
19342;DHT22;9807;48.258;12.690;2023-02-01T01:07:46;4.80;99.90
19342;DHT22;9807;48.258;12.690;2023-02-01T01:10:15;4.80;99.90
19342;DHT22;9807;48.258;12.690;2023-02-01T01:12:56;4.90;99.90
19342;DHT22;9807;48.258;12.690;2023-02-01T01:15:24;5.00;99.90
19342;DHT22;9807;48.258;12.690;2023-02-01T01:17:50;4.80;99.90
19342;DHT22;9807;48.258;12.690;2023-02-01T01:20:15;4.80;99.90
19342;DHT22;9807;48.258;12.690;2023-02-01T01:23:02;4.90;99.90
19342;DHT22;9807;48.258;12.690;2023-02-01T01:25:30;4.90;99.90
19342;DHT22;9807;48.258;12.690;2023-02-01T01:27:59;4.90;99.90
19342;DHT22;9807;48.258;12.690;2023-02-01T01:30:25;4.90;99.90
19342;DHT22;9807;48.258;12.690;2023-02-01T01:32:52;4.90;99.90
19342;DHT22;9807;48.258;12.690;2023-02-01T01:35:17;5.00;99.90
19342;DHT22;9807;48.258;12.690;2023-02-01T01:37:43;4.80;99.90
19342;DHT22;9807;48.258;12.690;2023-02-01T01:40:17;4.90;99.90
19342;DHT22;9807;48.258;12.690;2023-02-01T01:42:44;5.00;99.90
19342;DHT22;9807;48.258;12.690;2023-02-01T01:45:41;4.90;99.90
19342;DHT22;9807;48.258;12.690;2023-02-01T01:48:18;4.90;99.90
19342;DHT22;9807;48.258;12.690;2023-02-01T01:51:01;5.10;99.90
19342;DHT22;9807;48.258;12.690;2023-02-01T01:53:33;5.10;99.90
19342;DHT22;9807;48.258;12.690;2023-02-01T01:56:01;4.90;99.90
19342;DHT22;9807;48.258;12.690;2023-02-01T01:58:29;5.10;99.90
19342;DHT22;9807;48.258;12.690;2023-02-01T02:00:57;5.10;99.90
19342;DHT22;9807;48.258;12.690;2023-02-01T02:03:39;5.20;99.90
19342;DHT22;9807;48.258;12.690;2023-02-01T02:06:29;5.10;99.90
19342;DHT22;9807;48.258;12.690;2023-02-01T02:09:03;5.20;99.90
19342;DHT22;9807;48.258;12.690;2023-02-01T02:11:31;5.20;99.90
19342;DHT22;9807;48.258;12.690;2023-02-01T02:14:01;5.20;99.90
19342;DHT22;9807;48.258;12.690;2023-02-01T02:22:06;5.20;99.90
19342;DHT22;9807;48.258;12.690;2023-02-01T02:38:47;5.20;99.90
19342;DHT22;9807;48.258;12.690;2023-02-01T02:44:47;5.10;99.90
19342;DHT22;9807;48.258;12.690;2023-02-01T02:50:44;5.10;99.90
19342;DHT22;9807;48.258;12.690;2023-02-01T02:56:29;5.10;99.90
19342;DHT22;9807;48.258;12.690;2023-02-01T03:02:36;5.10;99.90
19342;DHT22;9807;48.258;12.690;2023-02-01T03:05:23;5.10;99.90
19342;DHT22;9807;48.258;12.690;2023-02-01T03:10:44;5.10;99.90
19342;DHT22;9807;48.258;12.690;2023-02-01T03:13:27;5.00;99.90
19342;DHT22;9807;48.258;12.690;2023-02-01T03:16:14;5.00;99.90
19342;DHT22;9807;48.258;12.690;2023-02-01T03:18:48;5.00;99.90
19342;DHT22;9807;48.258;12.690;2023-02-01T03:21:29;4.90;99.90
19342;DHT22;9807;48.258;12.690;2023-02-01T03:24:00;5.00;99.90
19342;DHT22;9807;48.258;12.690;2023-02-01T03:26:55;5.00;99.90
19342;DHT22;9807;48.258;12.690;2023-02-01T03:29:45;5.00;99.90
19342;DHT22;9807;48.258;12.690;2023-02-01T03:32:16;4.90;99.90
19342;DHT22;9807;48.258;12.690;2023-02-01T03:34:43;5.00;99.90
19342;DHT22;9807;48.258;12.690;2023-02-01T03:37:21;5.00;99.90
19342;DHT22;9807;48.258;12.690;2023-02-01T03:39:59;4.90;99.90
19342;DHT22;9807;48.258;12.690;2023-02-01T03:42:38;4.90;99.90
19342;DHT22;9807;48.258;12.690;2023-02-01T03:45:14;4.80;99.90
19342;DHT22;9807;48.258;12.690;2023-02-01T03:47:51;4.80;99.90
19342;DHT22;9807;48.258;12.690;2023-02-01T03:50:26;4.70;99.90
19342;DHT22;9807;48.258;12.690;2023-02-01T03:53:08;4.70;99.90
19342;DHT22;9807;48.258;12.690;2023-02-01T03:55:41;4.70;99.90
19342;DHT22;9807;48.258;12.690;2023-02-01T03:58:22;4.70;99.90
19342;DHT22;9807;48.258;12.690;2023-02-01T04:00:57;4.60;99.90
19342;DHT22;9807;48.258;12.690;2023-02-01T04:03:27;4.70;99.90
19342;DHT22;9807;48.258;12.690;2023-02-01T04:05:56;4.70;99.90
19342;DHT22;9807;48.258;12.690;2023-02-01T04:08:24;4.70;99.90
19342;DHT22;9807;48.258;12.690;2023-02-01T04:10:57;4.80;99.90
19342;DHT22;9807;48.258;12.690;2023-02-01T04:13:26;4.60;99.90
19342;DHT22;9807;48.258;12.690;2023-02-01T04:16:00;4.60;99.90
19342;DHT22;9807;48.258;12.690;2023-02-01T04:18:31;4.70;99.90
19342;DHT22;9807;48.258;12.690;2023-02-01T04:21:11;4.70;99.90
19342;DHT22;9807;48.258;12.690;2023-02-01T04:26:54;4.70;99.90
19342;DHT22;9807;48.258;12.690;2023-02-01T04:29:27;4.70;99.90
19342;DHT22;9807;48.258;12.690;2023-02-01T04:31:58;4.70;99.90
19342;DHT22;9807;48.258;12.690;2023-02-01T04:34:24;4.70;99.90
19342;DHT22;9807;48.258;12.690;2023-02-01T04:37:00;4.70;99.90
19342;DHT22;9807;48.258;12.690;2023-02-01T04:39:33;4.70;99.90
19342;DHT22;9807;48.258;12.690;2023-02-01T04:42:09;4.70;99.90
19342;DHT22;9807;48.258;12.690;2023-02-01T04:44:38;4.80;99.90
19342;DHT22;9807;48.258;12.690;2023-02-01T04:47:16;4.50;99.90
19342;DHT22;9807;48.258;12.690;2023-02-01T04:49:45;4.70;99.90
19342;DHT22;9807;48.258;12.690;2023-02-01T04:52:33;4.80;99.90
19342;DHT22;9807;48.258;12.690;2023-02-01T04:54:59;4.70;99.90
19342;DHT22;9807;48.258;12.690;2023-02-01T04:57:27;4.70;99.90
19342;DHT22;9807;48.258;12.690;2023-02-01T05:00:28;4.80;99.90
19342;DHT22;9807;48.258;12.690;2023-02-01T05:03:06;4.80;99.90
19342;DHT22;9807;48.258;12.690;2023-02-01T05:05:41;4.90;99.90
19342;DHT22;9807;48.258;12.690;2023-02-01T05:08:52;4.80;99.90
19342;DHT22;9807;48.258;12.690;2023-02-01T05:11:20;4.80;99.90
19342;DHT22;9807;48.258;12.690;2023-02-01T05:14:04;4.80;99.90
19342;DHT22;9807;48.258;12.690;2023-02-01T05:19:22;4.80;99.90
19342;DHT22;9807;48.258;12.690;2023-02-01T05:21:53;4.80;99.90
19342;DHT22;9807;48.258;12.690;2023-02-01T05:24:24;4.80;99.90
19342;DHT22;9807;48.258;12.690;2023-02-01T05:30:02;4.80;99.90
19342;DHT22;9807;48.258;12.690;2023-02-01T05:32:31;4.90;99.90
19342;DHT22;9807;48.258;12.690;2023-02-01T05:35:00;4.90;99.90
19342;DHT22;9807;48.258;12.690;2023-02-01T05:37:26;4.90;99.90
19342;DHT22;9807;48.258;12.690;2023-02-01T05:40:03;4.70;99.90
19342;DHT22;9807;48.258;12.690;2023-02-01T05:42:29;4.80;99.90
19342;DHT22;9807;48.258;12.690;2023-02-01T05:44:56;4.90;99.90
19342;DHT22;9807;48.258;12.690;2023-02-01T05:47:32;4.80;99.90
19342;DHT22;9807;48.258;12.690;2023-02-01T05:50:27;4.90;99.90
19342;DHT22;9807;48.258;12.690;2023-02-01T05:53:14;4.80;99.90
19342;DHT22;9807;48.258;12.690;2023-02-01T05:55:43;4.90;99.90
19342;DHT22;9807;48.258;12.690;2023-02-01T05:58:31;4.90;99.90
19342;DHT22;9807;48.258;12.690;2023-02-01T06:01:11;4.80;99.90
19342;DHT22;9807;48.258;12.690;2023-02-01T06:04:05;4.70;99.90
19342;DHT22;9807;48.258;12.690;2023-02-01T06:06:33;4.90;99.90
19342;DHT22;9807;48.258;12.690;2023-02-01T06:09:12;4.90;99.90
19342;DHT22;9807;48.258;12.690;2023-02-01T06:14:30;4.90;99.90
19342;DHT22;9807;48.258;12.690;2023-02-01T06:17:00;5.00;99.90
19342;DHT22;9807;48.258;12.690;2023-02-01T06:19:36;4.90;99.90
19342;DHT22;9807;48.258;12.690;2023-02-01T06:22:10;4.90;99.90
19342;DHT22;9807;48.258;12.690;2023-02-01T06:24:52;5.00;99.90
19342;DHT22;9807;48.258;12.690;2023-02-01T06:27:21;4.90;99.90
19342;DHT22;9807;48.258;12.690;2023-02-01T06:30:16;5.10;99.90
19342;DHT22;9807;48.258;12.690;2023-02-01T06:32:54;5.00;99.90
19342;DHT22;9807;48.258;12.690;2023-02-01T06:36:05;4.90;99.90
19342;DHT22;9807;48.258;12.690;2023-02-01T06:38:48;5.20;99.90
19342;DHT22;9807;48.258;12.690;2023-02-01T06:41:55;5.00;99.90
19342;DHT22;9807;48.258;12.690;2023-02-01T06:44:36;5.00;99.90
19342;DHT22;9807;48.258;12.690;2023-02-01T06:47:05;5.00;99.90
19342;DHT22;9807;48.258;12.690;2023-02-01T06:49:33;5.00;99.90
19342;DHT22;9807;48.258;12.690;2023-02-01T06:52:09;5.10;99.90
19342;DHT22;9807;48.258;12.690;2023-02-01T06:55:03;5.10;99.90
19342;DHT22;9807;48.258;12.690;2023-02-01T06:57:53;5.10;99.90
19342;DHT22;9807;48.258;12.690;2023-02-01T07:00:47;5.00;99.90
19342;DHT22;9807;48.258;12.690;2023-02-01T07:03:15;5.00;99.90
19342;DHT22;9807;48.258;12.690;2023-02-01T07:05:59;5.10;99.90
19342;DHT22;9807;48.258;12.690;2023-02-01T07:09:05;5.00;99.90
19342;DHT22;9807;48.258;12.690;2023-02-01T07:11:33;5.10;99.90
19342;DHT22;9807;48.258;12.690;2023-02-01T07:14:23;5.10;99.90
19342;DHT22;9807;48.258;12.690;2023-02-01T07:17:14;5.10;99.90
19342;DHT22;9807;48.258;12.690;2023-02-01T07:19:46;5.00;99.90
19342;DHT22;9807;48.258;12.690;2023-02-01T07:22:16;5.10;99.90
19342;DHT22;9807;48.258;12.690;2023-02-01T07:24:57;5.10;99.90
19342;DHT22;9807;48.258;12.690;2023-02-01T07:27:27;5.20;99.90
19342;DHT22;9807;48.258;12.690;2023-02-01T07:30:24;5.10;99.90
19342;DHT22;9807;48.258;12.690;2023-02-01T07:32:57;5.20;99.90
19342;DHT22;9807;48.258;12.690;2023-02-01T07:35:29;5.20;99.90
19342;DHT22;9807;48.258;12.690;2023-02-01T07:38:20;5.30;99.90
19342;DHT22;9807;48.258;12.690;2023-02-01T07:41:02;5.10;99.90
19342;DHT22;9807;48.258;12.690;2023-02-01T07:43:31;5.30;99.90
19342;DHT22;9807;48.258;12.690;2023-02-01T07:46:22;5.30;99.90
19342;DHT22;9807;48.258;12.690;2023-02-01T07:55:33;5.30;99.90
19342;DHT22;9807;48.258;12.690;2023-02-01T07:58:19;5.30;99.90
19342;DHT22;9807;48.258;12.690;2023-02-01T08:01:22;5.30;99.90
19342;DHT22;9807;48.258;12.690;2023-02-01T08:04:22;5.40;99.90
19342;DHT22;9807;48.258;12.690;2023-02-01T08:07:15;5.30;99.90
19342;DHT22;9807;48.258;12.690;2023-02-01T08:10:01;5.40;99.90
19342;DHT22;9807;48.258;12.690;2023-02-01T08:12:41;5.40;99.90
19342;DHT22;9807;48.258;12.690;2023-02-01T08:15:41;5.40;99.90
19342;DHT22;9807;48.258;12.690;2023-02-01T08:18:40;5.40;99.90
19342;DHT22;9807;48.258;12.690;2023-02-01T08:21:17;5.40;99.90
19342;DHT22;9807;48.258;12.690;2023-02-01T08:23:50;5.40;99.90
19342;DHT22;9807;48.258;12.690;2023-02-01T08:26:25;5.40;99.90
19342;DHT22;9807;48.258;12.690;2023-02-01T08:29:13;5.50;99.90
19342;DHT22;9807;48.258;12.690;2023-02-01T08:32:06;5.40;99.90
19342;DHT22;9807;48.258;12.690;2023-02-01T08:34:48;5.60;99.90
19342;DHT22;9807;48.258;12.690;2023-02-01T08:37:42;5.50;99.90
19342;DHT22;9807;48.258;12.690;2023-02-01T08:40:20;5.50;99.90
19342;DHT22;9807;48.258;12.690;2023-02-01T08:42:51;5.50;99.90
19342;DHT22;9807;48.258;12.690;2023-02-01T08:45:48;5.60;99.90
19342;DHT22;9807;48.258;12.690;2023-02-01T08:51:42;5.70;99.90
19342;DHT22;9807;48.258;12.690;2023-02-01T08:54:10;5.80;99.90
19342;DHT22;9807;48.258;12.690;2023-02-01T08:57:12;5.70;99.90
19342;DHT22;9807;48.258;12.690;2023-02-01T08:59:48;5.80;99.90
19342;DHT22;9807;48.258;12.690;2023-02-01T09:02:17;5.90;99.90
19342;DHT22;9807;48.258;12.690;2023-02-01T09:05:23;5.90;99.90
19342;DHT22;9807;48.258;12.690;2023-02-01T09:07:52;5.90;99.90
19342;DHT22;9807;48.258;12.690;2023-02-01T09:10:21;6.00;99.90
19342;DHT22;9807;48.258;12.690;2023-02-01T09:12:54;6.00;99.90
19342;DHT22;9807;48.258;12.690;2023-02-01T09:15:32;5.90;99.90
19342;DHT22;9807;48.258;12.690;2023-02-01T09:18:00;6.20;99.90
19342;DHT22;9807;48.258;12.690;2023-02-01T09:20:28;6.10;99.90
19342;DHT22;9807;48.258;12.690;2023-02-01T09:22:57;6.20;99.90
19342;DHT22;9807;48.258;12.690;2023-02-01T09:25:25;6.00;99.90
19342;DHT22;9807;48.258;12.690;2023-02-01T09:27:51;6.20;99.90
19342;DHT22;9807;48.258;12.690;2023-02-01T09:30:22;6.30;99.90
19342;DHT22;9807;48.258;12.690;2023-02-01T09:32:50;6.30;99.90
19342;DHT22;9807;48.258;12.690;2023-02-01T09:35:21;6.30;99.90
19342;DHT22;9807;48.258;12.690;2023-02-01T09:38:02;6.40;99.90
19342;DHT22;9807;48.258;12.690;2023-02-01T09:40:33;6.30;99.90
19342;DHT22;9807;48.258;12.690;2023-02-01T09:46:30;6.40;99.90
19342;DHT22;9807;48.258;12.690;2023-02-01T09:49:04;6.40;99.90
19342;DHT22;9807;48.258;12.690;2023-02-01T09:52:07;6.40;99.90
19342;DHT22;9807;48.258;12.690;2023-02-01T09:54:44;6.30;99.90
19342;DHT22;9807;48.258;12.690;2023-02-01T09:57:25;6.50;99.90
19342;DHT22;9807;48.258;12.690;2023-02-01T10:00:38;6.60;99.90
19342;DHT22;9807;48.258;12.690;2023-02-01T10:03:13;6.50;99.90
19342;DHT22;9807;48.258;12.690;2023-02-01T10:08:38;6.60;99.90
19342;DHT22;9807;48.258;12.690;2023-02-01T10:11:46;6.60;99.90
19342;DHT22;9807;48.258;12.690;2023-02-01T10:14:32;6.50;99.90
19342;DHT22;9807;48.258;12.690;2023-02-01T10:20:48;6.50;99.90
19342;DHT22;9807;48.258;12.690;2023-02-01T10:23:45;6.70;99.90
19342;DHT22;9807;48.258;12.690;2023-02-01T10:26:23;6.60;99.90
19342;DHT22;9807;48.258;12.690;2023-02-01T10:29:04;6.70;99.90
19342;DHT22;9807;48.258;12.690;2023-02-01T10:31:45;6.50;99.90
19342;DHT22;9807;48.258;12.690;2023-02-01T10:34:51;6.60;99.90
19342;DHT22;9807;48.258;12.690;2023-02-01T10:37:28;6.60;99.90
19342;DHT22;9807;48.258;12.690;2023-02-01T10:40:09;6.60;99.90
19342;DHT22;9807;48.258;12.690;2023-02-01T10:42:40;6.60;99.90
19342;DHT22;9807;48.258;12.690;2023-02-01T10:45:36;6.60;99.90
19342;DHT22;9807;48.258;12.690;2023-02-01T10:48:13;6.60;99.90
19342;DHT22;9807;48.258;12.690;2023-02-01T10:51:12;6.70;99.90
19342;DHT22;9807;48.258;12.690;2023-02-01T10:56:27;6.70;99.90
19342;DHT22;9807;48.258;12.690;2023-02-01T10:59:04;6.70;99.90
19342;DHT22;9807;48.258;12.690;2023-02-01T11:01:44;6.80;99.90
19342;DHT22;9807;48.258;12.690;2023-02-01T11:04:21;6.70;99.90
19342;DHT22;9807;48.258;12.690;2023-02-01T11:07:29;6.70;99.90
19342;DHT22;9807;48.258;12.690;2023-02-01T11:09:58;6.70;99.90
19342;DHT22;9807;48.258;12.690;2023-02-01T11:12:59;6.70;99.90
19342;DHT22;9807;48.258;12.690;2023-02-01T11:15:28;6.70;99.90
19342;DHT22;9807;48.258;12.690;2023-02-01T11:18:14;6.70;99.90
19342;DHT22;9807;48.258;12.690;2023-02-01T11:20:48;6.50;99.90
19342;DHT22;9807;48.258;12.690;2023-02-01T11:23:30;6.60;99.90
19342;DHT22;9807;48.258;12.690;2023-02-01T11:26:28;6.60;99.90
19342;DHT22;9807;48.258;12.690;2023-02-01T11:29:12;6.60;99.90
19342;DHT22;9807;48.258;12.690;2023-02-01T11:31:46;6.50;99.90
19342;DHT22;9807;48.258;12.690;2023-02-01T11:34:18;6.50;99.90
19342;DHT22;9807;48.258;12.690;2023-02-01T11:36:49;6.50;99.90
19342;DHT22;9807;48.258;12.690;2023-02-01T11:42:14;6.30;99.90
19342;DHT22;9807;48.258;12.690;2023-02-01T11:44:51;6.30;99.90
19342;DHT22;9807;48.258;12.690;2023-02-01T11:47:40;6.30;99.90
19342;DHT22;9807;48.258;12.690;2023-02-01T11:50:47;6.30;99.90
19342;DHT22;9807;48.258;12.690;2023-02-01T12:01:56;6.30;99.90
19342;DHT22;9807;48.258;12.690;2023-02-01T12:05:25;6.30;99.90
19342;DHT22;9807;48.258;12.690;2023-02-01T12:48:21;6.50;99.90
19342;DHT22;9807;48.258;12.690;2023-02-01T12:50:57;6.50;99.90
19342;DHT22;9807;48.258;12.690;2023-02-01T12:56:49;6.40;99.90
19342;DHT22;9807;48.258;12.690;2023-02-01T12:59:33;6.30;99.90
19342;DHT22;9807;48.258;12.690;2023-02-01T13:02:28;6.30;99.90
19342;DHT22;9807;48.258;12.690;2023-02-01T13:07:52;6.40;99.90
19342;DHT22;9807;48.258;12.690;2023-02-01T13:19:20;6.40;99.90
19342;DHT22;9807;48.258;12.690;2023-02-01T13:21:50;6.40;99.90
19342;DHT22;9807;48.258;12.690;2023-02-01T13:27:24;6.30;99.90
19342;DHT22;9807;48.258;12.690;2023-02-01T13:30:18;6.30;99.90
19342;DHT22;9807;48.258;12.690;2023-02-01T13:36:03;6.30;99.90
19342;DHT22;9807;48.258;12.690;2023-02-01T13:41:41;6.10;99.90
19342;DHT22;9807;48.258;12.690;2023-02-01T13:46:58;6.10;99.90
19342;DHT22;9807;48.258;12.690;2023-02-01T13:49:41;6.10;99.90
19342;DHT22;9807;48.258;12.690;2023-02-01T13:52:55;6.00;99.90
19342;DHT22;9807;48.258;12.690;2023-02-01T13:55:45;5.90;99.90
19342;DHT22;9807;48.258;12.690;2023-02-01T13:58:31;6.00;99.90
19342;DHT22;9807;48.258;12.690;2023-02-01T14:04:04;6.00;99.90
19342;DHT22;9807;48.258;12.690;2023-02-01T14:06:36;6.00;99.90
19342;DHT22;9807;48.258;12.690;2023-02-01T14:09:33;5.90;99.90
19342;DHT22;9807;48.258;12.690;2023-02-01T14:15:32;6.00;99.90
19342;DHT22;9807;48.258;12.690;2023-02-01T14:26:51;6.00;99.90
19342;DHT22;9807;48.258;12.690;2023-02-01T14:37:26;6.10;99.90
19342;DHT22;9807;48.258;12.690;2023-02-01T14:43:16;6.00;99.90
19342;DHT22;9807;48.258;12.690;2023-02-01T14:45:49;6.10;99.90
19342;DHT22;9807;48.258;12.690;2023-02-01T14:50:52;6.10;99.90
19342;DHT22;9807;48.258;12.690;2023-02-01T14:53:41;6.10;99.90
19342;DHT22;9807;48.258;12.690;2023-02-01T14:56:15;6.00;99.90
19342;DHT22;9807;48.258;12.690;2023-02-01T14:58:58;6.00;99.90
19342;DHT22;9807;48.258;12.690;2023-02-01T15:01:38;6.10;99.90
19342;DHT22;9807;48.258;12.690;2023-02-01T15:04:10;6.00;99.90
19342;DHT22;9807;48.258;12.690;2023-02-01T15:06:52;6.00;99.90
19342;DHT22;9807;48.258;12.690;2023-02-01T15:10:02;6.00;99.90
19342;DHT22;9807;48.258;12.690;2023-02-01T15:12:28;6.00;99.90
19342;DHT22;9807;48.258;12.690;2023-02-01T15:15:22;5.90;99.90
19342;DHT22;9807;48.258;12.690;2023-02-01T15:18:01;5.90;99.90
19342;DHT22;9807;48.258;12.690;2023-02-01T15:20:42;5.80;99.90
19342;DHT22;9807;48.258;12.690;2023-02-01T15:23:38;5.90;99.90
19342;DHT22;9807;48.258;12.690;2023-02-01T15:26:06;5.80;99.90
19342;DHT22;9807;48.258;12.690;2023-02-01T15:28:50;5.80;99.90
19342;DHT22;9807;48.258;12.690;2023-02-01T15:31:34;5.90;99.90
19342;DHT22;9807;48.258;12.690;2023-02-01T15:34:03;5.80;99.90
19342;DHT22;9807;48.258;12.690;2023-02-01T15:36:47;5.80;99.90
19342;DHT22;9807;48.258;12.690;2023-02-01T15:39:26;5.80;99.90
19342;DHT22;9807;48.258;12.690;2023-02-01T15:41:57;5.70;99.90
19342;DHT22;9807;48.258;12.690;2023-02-01T15:44:34;5.70;99.90
19342;DHT22;9807;48.258;12.690;2023-02-01T15:47:11;5.70;99.90
19342;DHT22;9807;48.258;12.690;2023-02-01T15:49:47;5.50;99.90
19342;DHT22;9807;48.258;12.690;2023-02-01T15:52:24;5.60;99.90
19342;DHT22;9807;48.258;12.690;2023-02-01T15:54:58;5.60;99.90
19342;DHT22;9807;48.258;12.690;2023-02-01T15:57:34;5.60;99.90
19342;DHT22;9807;48.258;12.690;2023-02-01T16:00:17;5.60;99.90
19342;DHT22;9807;48.258;12.690;2023-02-01T16:08:16;5.50;99.90
19342;DHT22;9807;48.258;12.690;2023-02-01T16:10:46;5.60;99.90
19342;DHT22;9807;48.258;12.690;2023-02-01T16:13:18;5.50;99.90
19342;DHT22;9807;48.258;12.690;2023-02-01T16:16:01;5.50;99.90
19342;DHT22;9807;48.258;12.690;2023-02-01T16:18:31;5.60;99.90
19342;DHT22;9807;48.258;12.690;2023-02-01T16:20:57;5.60;99.90
19342;DHT22;9807;48.258;12.690;2023-02-01T16:23:23;5.60;99.90
19342;DHT22;9807;48.258;12.690;2023-02-01T16:25:49;5.60;99.90
19342;DHT22;9807;48.258;12.690;2023-02-01T16:28:17;5.60;99.90
19342;DHT22;9807;48.258;12.690;2023-02-01T16:30:42;5.60;99.90
19342;DHT22;9807;48.258;12.690;2023-02-01T16:33:13;5.60;99.90
19342;DHT22;9807;48.258;12.690;2023-02-01T16:35:56;5.50;99.90
19342;DHT22;9807;48.258;12.690;2023-02-01T16:38:28;5.60;99.90
19342;DHT22;9807;48.258;12.690;2023-02-01T16:40:59;5.50;99.90
19342;DHT22;9807;48.258;12.690;2023-02-01T16:43:29;5.60;99.90
19342;DHT22;9807;48.258;12.690;2023-02-01T16:46:01;5.60;99.90
19342;DHT22;9807;48.258;12.690;2023-02-01T16:48:41;5.60;99.90
19342;DHT22;9807;48.258;12.690;2023-02-01T16:51:23;5.60;99.90
19342;DHT22;9807;48.258;12.690;2023-02-01T16:53:59;5.60;99.90
19342;DHT22;9807;48.258;12.690;2023-02-01T16:56:31;5.70;99.90
19342;DHT22;9807;48.258;12.690;2023-02-01T16:59:09;5.80;99.90
19342;DHT22;9807;48.258;12.690;2023-02-01T17:01:38;5.70;99.90
19342;DHT22;9807;48.258;12.690;2023-02-01T17:04:07;5.70;99.90
19342;DHT22;9807;48.258;12.690;2023-02-01T17:06:42;5.70;99.90
19342;DHT22;9807;48.258;12.690;2023-02-01T17:09:13;5.70;99.90
19342;DHT22;9807;48.258;12.690;2023-02-01T17:11:50;5.60;99.90
19342;DHT22;9807;48.258;12.690;2023-02-01T17:14:58;5.70;99.90
19342;DHT22;9807;48.258;12.690;2023-02-01T17:17:39;5.70;99.90
19342;DHT22;9807;48.258;12.690;2023-02-01T17:20:24;5.70;99.90
19342;DHT22;9807;48.258;12.690;2023-02-01T17:22:58;5.70;99.90
19342;DHT22;9807;48.258;12.690;2023-02-01T17:25:27;5.70;99.90
19342;DHT22;9807;48.258;12.690;2023-02-01T17:31:20;5.60;99.90
19342;DHT22;9807;48.258;12.690;2023-02-01T17:41:38;5.60;99.90
19342;DHT22;9807;48.258;12.690;2023-02-01T17:44:15;5.70;99.90
19342;DHT22;9807;48.258;12.690;2023-02-01T17:46:41;5.70;99.90
19342;DHT22;9807;48.258;12.690;2023-02-01T17:49:13;5.70;99.90
19342;DHT22;9807;48.258;12.690;2023-02-01T17:51:39;5.80;99.90
19342;DHT22;9807;48.258;12.690;2023-02-01T17:54:33;5.70;99.90
19342;DHT22;9807;48.258;12.690;2023-02-01T17:57:21;5.70;99.90
19342;DHT22;9807;48.258;12.690;2023-02-01T17:59:55;5.70;99.90
19342;DHT22;9807;48.258;12.690;2023-02-01T18:02:57;5.70;99.90
19342;DHT22;9807;48.258;12.690;2023-02-01T18:05:52;5.70;99.90
19342;DHT22;9807;48.258;12.690;2023-02-01T18:08:21;5.70;99.90
19342;DHT22;9807;48.258;12.690;2023-02-01T18:10:49;5.60;99.90
19342;DHT22;9807;48.258;12.690;2023-02-01T18:13:31;5.60;99.90
19342;DHT22;9807;48.258;12.690;2023-02-01T18:16:25;5.60;99.90
19342;DHT22;9807;48.258;12.690;2023-02-01T18:18:52;5.50;99.90
19342;DHT22;9807;48.258;12.690;2023-02-01T18:21:21;5.60;99.90
19342;DHT22;9807;48.258;12.690;2023-02-01T18:23:52;5.70;99.90
19342;DHT22;9807;48.258;12.690;2023-02-01T18:26:21;5.60;99.90
19342;DHT22;9807;48.258;12.690;2023-02-01T18:28:49;5.70;99.90
19342;DHT22;9807;48.258;12.690;2023-02-01T18:31:23;5.70;99.90
19342;DHT22;9807;48.258;12.690;2023-02-01T18:33:53;5.70;99.90
19342;DHT22;9807;48.258;12.690;2023-02-01T18:36:54;5.70;99.90
19342;DHT22;9807;48.258;12.690;2023-02-01T18:39:29;5.80;99.90
19342;DHT22;9807;48.258;12.690;2023-02-01T18:41:57;5.80;99.90
19342;DHT22;9807;48.258;12.690;2023-02-01T18:44:33;5.80;99.90
19342;DHT22;9807;48.258;12.690;2023-02-01T18:47:01;5.70;99.90
19342;DHT22;9807;48.258;12.690;2023-02-01T18:49:39;5.80;99.90
19342;DHT22;9807;48.258;12.690;2023-02-01T18:52:08;5.90;99.90
19342;DHT22;9807;48.258;12.690;2023-02-01T18:54:39;5.80;99.90
19342;DHT22;9807;48.258;12.690;2023-02-01T18:57:08;5.90;99.90
19342;DHT22;9807;48.258;12.690;2023-02-01T18:59:41;5.80;99.90
19342;DHT22;9807;48.258;12.690;2023-02-01T19:02:11;5.80;99.90
19342;DHT22;9807;48.258;12.690;2023-02-01T19:04:40;5.80;99.90
19342;DHT22;9807;48.258;12.690;2023-02-01T19:07:18;5.80;99.90
19342;DHT22;9807;48.258;12.690;2023-02-01T19:09:44;5.80;99.90
19342;DHT22;9807;48.258;12.690;2023-02-01T19:12:20;5.90;99.90
19342;DHT22;9807;48.258;12.690;2023-02-01T19:14:53;5.90;99.90
19342;DHT22;9807;48.258;12.690;2023-02-01T19:17:31;5.70;99.90
19342;DHT22;9807;48.258;12.690;2023-02-01T19:20:24;5.80;99.90
19342;DHT22;9807;48.258;12.690;2023-02-01T19:22:53;5.90;99.90
19342;DHT22;9807;48.258;12.690;2023-02-01T19:25:29;5.90;99.90
19342;DHT22;9807;48.258;12.690;2023-02-01T19:27:57;5.90;99.90
19342;DHT22;9807;48.258;12.690;2023-02-01T19:30:26;5.80;99.90
19342;DHT22;9807;48.258;12.690;2023-02-01T19:32:57;5.90;99.90
19342;DHT22;9807;48.258;12.690;2023-02-01T19:35:30;6.00;99.90
19342;DHT22;9807;48.258;12.690;2023-02-01T19:37:59;5.90;99.90
19342;DHT22;9807;48.258;12.690;2023-02-01T19:40:29;5.90;99.90
19342;DHT22;9807;48.258;12.690;2023-02-01T19:43:00;5.90;99.90
19342;DHT22;9807;48.258;12.690;2023-02-01T19:45:50;5.90;99.90
19342;DHT22;9807;48.258;12.690;2023-02-01T19:48:20;5.70;99.90
19342;DHT22;9807;48.258;12.690;2023-02-01T19:50:48;5.80;99.90
19342;DHT22;9807;48.258;12.690;2023-02-01T19:53:28;5.70;99.90
19342;DHT22;9807;48.258;12.690;2023-02-01T19:56:01;5.80;99.90
19342;DHT22;9807;48.258;12.690;2023-02-01T19:58:35;5.90;99.90
19342;DHT22;9807;48.258;12.690;2023-02-01T20:01:13;6.00;99.90
19342;DHT22;9807;48.258;12.690;2023-02-01T20:04:23;5.90;99.90